Time;durP1;ratioP1;P1;durP2;ratioP2;P2;SDS_P1;SDS_P2;PMS_P1;PMS_P2;Temp;Humidity;BMP_temperature;BMP_pressure;BME280_temperature;BME280_humidity;BME280_pressure;Samples;Min_cycle;Max_cycle;Signal;HPM_P1;HPM_P2
2023/08/03 00:00:16;;;;;;;;;;;16.90;99.90;;;;;;5112689;28;19911;-43
2023/08/03 00:02:41;;;;;;;;;;;16.90;99.90;;;;;;5116645;27;19912;-42
2023/08/03 00:05:07;;;;;;;;;;;16.90;99.90;;;;;;5111963;28;20335;-42
2023/08/03 00:07:33;;;;;;;;;;;16.80;99.90;;;;;;5125985;27;19919;-42
2023/08/03 00:09:58;;;;;;;;;;;16.80;99.90;;;;;;5132870;27;19907;-41
2023/08/03 00:12:24;;;;;;;;;;;16.90;99.90;;;;;;5132439;27;19922;-43
2023/08/03 00:14:50;;;;;;;;;;;16.80;99.90;;;;;;5127924;27;19923;-42
2023/08/03 00:17:15;;;;;;;;;;;16.90;99.90;;;;;;5125338;27;20006;-42
2023/08/03 00:19:41;;;;;;;;;;;16.90;99.90;;;;;;5132788;27;19915;-42
2023/08/03 00:22:06;;;;;;;;;;;16.90;99.90;;;;;;5132933;27;19907;-43
2023/08/03 00:24:32;;;;;;;;;;;16.90;99.90;;;;;;5133433;27;19915;-42
2023/08/03 00:26:57;;;;;;;;;;;16.90;99.90;;;;;;5132244;27;19985;-42
2023/08/03 00:29:23;;;;;;;;;;;16.80;99.90;;;;;;5133209;27;19907;-43
2023/08/03 00:31:48;;;;;;;;;;;16.90;99.90;;;;;;5133272;27;19911;-43
2023/08/03 00:34:14;;;;;;;;;;;16.90;99.90;;;;;;5132006;28;20366;-43
2023/08/03 00:36:39;;;;;;;;;;;16.80;99.90;;;;;;5133060;27;20361;-42
2023/08/03 00:39:05;;;;;;;;;;;16.90;99.90;;;;;;5132794;28;19969;-43
2023/08/03 00:41:30;;;;;;;;;;;16.80;99.90;;;;;;5132476;28;19907;-43
2023/08/03 00:43:56;;;;;;;;;;;16.80;99.90;;;;;;5132213;27;19920;-42
2023/08/03 00:46:21;;;;;;;;;;;16.80;99.90;;;;;;5129263;28;19926;-42
2023/08/03 00:48:47;;;;;;;;;;;16.80;99.90;;;;;;5112576;28;19919;-44
2023/08/03 00:51:12;;;;;;;;;;;16.90;99.90;;;;;;5112481;28;20308;-43
2023/08/03 00:53:38;;;;;;;;;;;16.80;99.90;;;;;;5111705;28;19912;-43
2023/08/03 00:56:03;;;;;;;;;;;16.80;99.90;;;;;;5124607;28;19908;-43
2023/08/03 00:58:29;;;;;;;;;;;16.80;99.90;;;;;;5132963;28;19911;-43
2023/08/03 01:00:54;;;;;;;;;;;16.80;99.90;;;;;;5131982;28;19907;-43
2023/08/03 01:03:20;;;;;;;;;;;16.80;99.90;;;;;;5115794;28;19907;-42
2023/08/03 01:05:45;;;;;;;;;;;16.70;99.90;;;;;;5112199;28;19907;-43
2023/08/03 01:08:11;;;;;;;;;;;16.80;99.90;;;;;;5111148;28;19916;-43
2023/08/03 01:10:36;;;;;;;;;;;16.70;99.90;;;;;;5130274;28;20389;-44
2023/08/03 01:13:02;;;;;;;;;;;16.70;99.90;;;;;;5132666;28;19958;-43
2023/08/03 01:15:27;;;;;;;;;;;16.70;99.90;;;;;;5131959;28;20362;-43
2023/08/03 01:17:53;;;;;;;;;;;16.70;99.90;;;;;;5131833;28;19911;-43
2023/08/03 01:20:20;;;;;;;;;;;16.60;99.90;;;;;;5115376;28;19927;-42
2023/08/03 01:22:46;;;;;;;;;;;16.60;99.90;;;;;;5131518;28;20262;-45
2023/08/03 01:25:11;;;;;;;;;;;16.60;99.90;;;;;;5132309;28;19919;-43
2023/08/03 01:27:37;;;;;;;;;;;16.60;99.90;;;;;;5118615;28;20377;-43
2023/08/03 01:30:03;;;;;;;;;;;16.60;99.90;;;;;;5119278;28;19911;-43
2023/08/03 01:32:29;;;;;;;;;;;16.60;99.90;;;;;;5132499;28;19907;-43
2023/08/03 01:34:55;;;;;;;;;;;16.60;99.90;;;;;;5132261;28;19998;-42
2023/08/03 01:37:20;;;;;;;;;;;16.50;99.90;;;;;;5131614;28;19946;-43
2023/08/03 01:39:46;;;;;;;;;;;16.50;99.90;;;;;;5132728;28;19907;-44
2023/08/03 01:42:14;;;;;;;;;;;16.60;99.90;;;;;;5132272;28;20008;-43
2023/08/03 01:44:40;;;;;;;;;;;16.50;99.90;;;;;;5131549;27;19967;-42
2023/08/03 01:47:05;;;;;;;;;;;16.50;99.90;;;;;;5132054;28;19970;-44
2023/08/03 01:49:32;;;;;;;;;;;16.50;99.90;;;;;;5134134;27;19907;-42
2023/08/03 01:51:57;;;;;;;;;;;16.50;99.90;;;;;;5135356;27;19907;-43
2023/08/03 01:54:23;;;;;;;;;;;16.50;99.90;;;;;;5136061;27;19908;-43
2023/08/03 01:56:48;;;;;;;;;;;16.60;99.90;;;;;;5135395;27;19911;-42
2023/08/03 01:59:13;;;;;;;;;;;16.60;99.90;;;;;;5135738;27;19930;-43
2023/08/03 02:01:39;;;;;;;;;;;16.60;99.90;;;;;;5136077;27;19998;-43
2023/08/03 02:04:05;;;;;;;;;;;16.50;99.90;;;;;;5134936;27;19907;-42
2023/08/03 02:06:30;;;;;;;;;;;16.50;99.90;;;;;;5135595;27;19916;-43
2023/08/03 02:08:56;;;;;;;;;;;16.50;99.90;;;;;;5135637;27;20018;-43
2023/08/03 02:11:21;;;;;;;;;;;16.50;99.90;;;;;;5123628;27;20400;-43
2023/08/03 02:13:47;;;;;;;;;;;16.50;99.90;;;;;;5115398;28;19908;-43
2023/08/03 02:16:12;;;;;;;;;;;16.50;99.90;;;;;;5114858;28;19908;-43
2023/08/03 02:18:39;;;;;;;;;;;16.50;99.90;;;;;;5114344;28;19922;-42
2023/08/03 02:21:05;;;;;;;;;;;16.50;99.90;;;;;;5114518;28;20255;-43
2023/08/03 02:23:30;;;;;;;;;;;16.50;99.90;;;;;;5116543;27;19961;-44
2023/08/03 02:25:56;;;;;;;;;;;16.50;99.90;;;;;;5134541;27;19912;-43
2023/08/03 02:28:21;;;;;;;;;;;16.50;99.90;;;;;;5135464;27;19919;-43
2023/08/03 02:30:47;;;;;;;;;;;16.50;99.90;;;;;;5135392;27;20007;-43
2023/08/03 02:33:12;;;;;;;;;;;16.50;99.90;;;;;;5134317;27;19915;-42
2023/08/03 02:35:39;;;;;;;;;;;16.40;99.90;;;;;;5135327;27;19908;-45
2023/08/03 02:38:05;;;;;;;;;;;16.50;99.90;;;;;;5134936;27;20354;-44
2023/08/03 02:40:30;;;;;;;;;;;16.50;99.90;;;;;;5134488;27;19914;-43
2023/08/03 02:42:56;;;;;;;;;;;16.40;99.90;;;;;;5134733;27;19919;-43
2023/08/03 02:45:21;;;;;;;;;;;16.40;99.90;;;;;;5134986;27;19987;-44
2023/08/03 02:47:47;;;;;;;;;;;16.40;99.90;;;;;;5134287;27;20277;-44
2023/08/03 02:50:13;;;;;;;;;;;16.40;99.90;;;;;;5134729;27;19908;-42
2023/08/03 02:52:38;;;;;;;;;;;16.40;99.90;;;;;;5135141;27;19915;-44
2023/08/03 02:55:04;;;;;;;;;;;16.50;99.90;;;;;;5133906;27;19912;-45
2023/08/03 02:57:29;;;;;;;;;;;16.50;99.90;;;;;;5134897;27;19930;-44
2023/08/03 02:59:55;;;;;;;;;;;16.50;99.90;;;;;;5133375;27;19907;-42
2023/08/03 03:02:20;;;;;;;;;;;16.50;99.90;;;;;;5133870;27;19907;-44
2023/08/03 03:04:46;;;;;;;;;;;16.50;99.90;;;;;;5134890;27;19960;-43
2023/08/03 03:07:11;;;;;;;;;;;16.50;99.90;;;;;;5133485;27;20010;-43
2023/08/03 03:09:37;;;;;;;;;;;16.50;99.90;;;;;;5134811;27;19914;-43
2023/08/03 03:12:02;;;;;;;;;;;16.40;99.90;;;;;;5134364;27;19952;-44
2023/08/03 03:14:28;;;;;;;;;;;16.50;99.90;;;;;;5133700;27;19977;-43
2023/08/03 03:16:53;;;;;;;;;;;16.50;99.90;;;;;;5134288;27;20295;-43
2023/08/03 03:19:19;;;;;;;;;;;16.50;99.90;;;;;;5134350;27;20266;-43
2023/08/03 03:21:44;;;;;;;;;;;16.50;99.90;;;;;;5133642;27;19911;-42
2023/08/03 03:24:10;;;;;;;;;;;16.50;99.90;;;;;;5133982;27;19919;-43
2023/08/03 03:26:35;;;;;;;;;;;16.50;99.90;;;;;;5134317;27;19916;-45
2023/08/03 03:29:01;;;;;;;;;;;16.60;99.90;;;;;;5133272;27;19943;-44
2023/08/03 03:31:26;;;;;;;;;;;16.50;99.90;;;;;;5134110;27;20410;-42
2023/08/03 03:33:52;;;;;;;;;;;16.50;99.90;;;;;;5132941;27;19911;-42
2023/08/03 03:36:17;;;;;;;;;;;16.60;99.90;;;;;;5132652;27;19911;-43
2023/08/03 03:38:43;;;;;;;;;;;16.50;99.90;;;;;;5133413;27;19911;-43
2023/08/03 03:41:08;;;;;;;;;;;16.60;99.90;;;;;;5133847;27;19953;-43
2023/08/03 03:43:34;;;;;;;;;;;16.60;99.90;;;;;;5132641;27;19942;-43
2023/08/03 03:46:01;;;;;;;;;;;16.60;99.90;;;;;;5133546;27;20377;-43
2023/08/03 03:48:27;;;;;;;;;;;16.60;99.90;;;;;;5132315;27;19915;-44
2023/08/03 03:50:53;;;;;;;;;;;16.60;99.90;;;;;;5112304;27;19939;-44
2023/08/03 03:53:18;;;;;;;;;;;16.70;99.90;;;;;;5120848;27;19912;-44
2023/08/03 03:55:44;;;;;;;;;;;16.70;99.90;;;;;;5133451;27;19911;-44
2023/08/03 03:58:10;;;;;;;;;;;16.70;99.90;;;;;;5132382;27;19919;-43
2023/08/03 04:00:40;;;;;;;;;;;16.70;99.90;;;;;;5124652;27;19912;-42
2023/08/03 04:03:06;;;;;;;;;;;16.70;99.90;;;;;;5125960;27;19919;-42
2023/08/03 04:05:31;;;;;;;;;;;16.60;99.90;;;;;;5112321;28;19982;-43
2023/08/03 04:07:57;;;;;;;;;;;16.70;99.90;;;;;;5118152;27;19958;-42
2023/08/03 04:10:22;;;;;;;;;;;16.70;99.90;;;;;;5132386;27;20320;-43
2023/08/03 04:12:48;;;;;;;;;;;16.70;99.90;;;;;;5131385;27;19915;-44
2023/08/03 04:15:13;;;;;;;;;;;16.60;99.90;;;;;;5121458;27;20323;-43
2023/08/03 04:17:39;;;;;;;;;;;16.60;99.90;;;;;;5132751;27;19915;-43
2023/08/03 04:20:05;;;;;;;;;;;16.60;99.90;;;;;;5133006;27;19915;-43
2023/08/03 04:22:30;;;;;;;;;;;16.60;99.90;;;;;;5133341;27;20456;-42
2023/08/03 04:24:56;;;;;;;;;;;16.60;99.90;;;;;;5132361;27;19928;-43
2023/08/03 04:27:21;;;;;;;;;;;16.60;99.90;;;;;;5133145;27;19915;-43
2023/08/03 04:29:47;;;;;;;;;;;16.60;99.90;;;;;;5133324;27;19907;-44
2023/08/03 04:32:12;;;;;;;;;;;16.60;99.90;;;;;;5131951;27;20376;-44
2023/08/03 04:34:38;;;;;;;;;;;16.50;99.90;;;;;;5133240;27;19960;-43
2023/08/03 04:37:03;;;;;;;;;;;16.50;99.90;;;;;;5133057;27;20424;-42
2023/08/03 04:39:29;;;;;;;;;;;16.50;99.90;;;;;;5132394;28;20326;-43
2023/08/03 04:41:54;;;;;;;;;;;16.50;99.90;;;;;;5132910;28;19990;-44
2023/08/03 04:44:20;;;;;;;;;;;16.50;99.90;;;;;;5132708;27;19946;-44
2023/08/03 04:46:45;;;;;;;;;;;16.60;99.90;;;;;;5132098;28;19922;-43
2023/08/03 04:49:13;;;;;;;;;;;16.50;99.90;;;;;;5132850;28;19919;-42
2023/08/03 04:51:38;;;;;;;;;;;16.60;99.90;;;;;;5133075;28;19986;-43
2023/08/03 04:54:04;;;;;;;;;;;16.60;99.90;;;;;;5132012;28;19931;-44
2023/08/03 04:56:29;;;;;;;;;;;16.60;99.90;;;;;;5133010;28;20400;-44
2023/08/03 04:58:55;;;;;;;;;;;16.60;99.90;;;;;;5132853;28;19990;-43
2023/08/03 05:01:20;;;;;;;;;;;16.60;99.90;;;;;;5121611;28;20335;-42
2023/08/03 05:03:46;;;;;;;;;;;16.60;99.90;;;;;;5118579;27;20015;-45
2023/08/03 05:06:12;;;;;;;;;;;16.60;99.90;;;;;;5126773;28;19919;-44
2023/08/03 05:08:37;;;;;;;;;;;16.70;99.90;;;;;;5132180;28;19907;-43
2023/08/03 05:11:03;;;;;;;;;;;16.70;99.90;;;;;;5132510;28;20288;-43
2023/08/03 05:13:28;;;;;;;;;;;16.70;99.90;;;;;;5132841;28;19907;-43
2023/08/03 05:15:54;;;;;;;;;;;16.80;99.90;;;;;;5127392;28;19957;-43
2023/08/03 05:18:19;;;;;;;;;;;16.80;99.90;;;;;;5112210;28;20461;-43
2023/08/03 05:20:44;;;;;;;;;;;16.80;99.90;;;;;;5112400;28;19959;-42
2023/08/03 05:23:12;;;;;;;;;;;16.90;99.90;;;;;;5112135;28;19994;-45
2023/08/03 05:25:38;;;;;;;;;;;16.90;99.90;;;;;;5115654;28;20006;-42
2023/08/03 05:28:04;;;;;;;;;;;16.90;99.90;;;;;;5123181;27;20010;-42
2023/08/03 05:30:29;;;;;;;;;;;16.90;99.90;;;;;;5136471;27;20006;-42
2023/08/03 05:32:55;;;;;;;;;;;16.90;99.90;;;;;;5136147;27;20361;-43
2023/08/03 05:35:20;;;;;;;;;;;16.90;99.90;;;;;;5132269;27;19916;-42
2023/08/03 05:37:46;;;;;;;;;;;17.00;99.90;;;;;;5129043;27;20286;-42
2023/08/03 05:40:12;;;;;;;;;;;17.00;99.90;;;;;;5115595;28;19912;-41
2023/08/03 05:42:38;;;;;;;;;;;17.00;99.90;;;;;;5114783;27;19918;-43
2023/08/03 05:45:10;;;;;;;;;;;17.00;99.90;;;;;;5129466;27;19919;-43
2023/08/03 05:47:36;;;;;;;;;;;17.10;99.90;;;;;;5115594;28;19916;-42
2023/08/03 05:50:04;;;;;;;;;;;17.10;99.90;;;;;;5114784;28;20056;-43
2023/08/03 05:52:29;;;;;;;;;;;17.10;99.90;;;;;;5122902;27;20321;-42
2023/08/03 05:54:55;;;;;;;;;;;17.10;99.90;;;;;;5120723;27;19959;-42
2023/08/03 05:57:20;;;;;;;;;;;17.20;99.90;;;;;;5113899;27;19915;-42
2023/08/03 05:59:46;;;;;;;;;;;17.20;99.90;;;;;;5116277;27;19919;-44
2023/08/03 06:02:30;;;;;;;;;;;17.20;99.90;;;;;;5115587;27;19919;-43
2023/08/03 06:04:55;;;;;;;;;;;17.30;99.90;;;;;;5128720;27;20362;-42
2023/08/03 06:07:21;;;;;;;;;;;17.30;99.90;;;;;;5117694;27;19962;-43
2023/08/03 06:09:48;;;;;;;;;;;17.30;99.90;;;;;;5115771;27;19935;-43
2023/08/03 06:12:16;;;;;;;;;;;17.30;99.90;;;;;;5094395;28;19908;-43
2023/08/03 06:14:42;;;;;;;;;;;17.30;99.90;;;;;;5094950;28;20063;-42
2023/08/03 06:17:08;;;;;;;;;;;17.30;99.90;;;;;;5093570;28;20090;-42
2023/08/03 06:19:35;;;;;;;;;;;17.40;99.90;;;;;;5101491;27;19908;-43
2023/08/03 06:22:04;;;;;;;;;;;17.40;99.90;;;;;;5135392;27;19919;-43
2023/08/03 06:24:30;;;;;;;;;;;17.40;99.90;;;;;;5125234;27;19908;-43
2023/08/03 06:26:57;;;;;;;;;;;17.50;99.90;;;;;;5121138;27;19934;-43
2023/08/03 06:29:23;;;;;;;;;;;17.50;99.90;;;;;;5123588;27;19954;-41
2023/08/03 06:31:48;;;;;;;;;;;17.60;99.90;;;;;;5134905;27;19946;-43
2023/08/03 06:34:14;;;;;;;;;;;17.60;99.90;;;;;;5120918;27;20334;-42
2023/08/03 06:36:44;;;;;;;;;;;17.70;99.90;;;;;;5121141;27;19972;-42
2023/08/03 06:39:09;;;;;;;;;;;17.70;99.90;;;;;;5121376;27;20278;-46
2023/08/03 06:41:35;;;;;;;;;;;17.80;99.90;;;;;;5119614;27;19920;-43
2023/08/03 06:44:01;;;;;;;;;;;17.80;99.90;;;;;;5123233;27;19928;-42
2023/08/03 06:46:27;;;;;;;;;;;17.80;99.90;;;;;;5137004;27;19919;-42
2023/08/03 06:48:53;;;;;;;;;;;17.90;99.90;;;;;;5146430;27;20535;-42
2023/08/03 06:51:19;;;;;;;;;;;17.90;99.90;;;;;;5142507;27;19918;-43
2023/08/03 06:53:46;;;;;;;;;;;17.90;99.90;;;;;;5140395;27;19994;-41
2023/08/03 06:56:12;;;;;;;;;;;18.00;99.90;;;;;;5144958;27;19922;-42
2023/08/03 06:58:37;;;;;;;;;;;18.00;99.90;;;;;;5134802;27;19908;-43
2023/08/03 07:01:03;;;;;;;;;;;18.00;99.90;;;;;;5150467;27;19934;-42
2023/08/03 07:03:29;;;;;;;;;;;18.00;99.90;;;;;;5150763;27;20377;-43
2023/08/03 07:05:55;;;;;;;;;;;18.00;99.90;;;;;;5127449;27;19912;-42
2023/08/03 07:08:20;;;;;;;;;;;18.00;99.90;;;;;;5112307;28;19927;-42
2023/08/03 07:10:46;;;;;;;;;;;18.10;99.90;;;;;;5114102;28;19918;-44
2023/08/03 07:13:11;;;;;;;;;;;18.20;99.90;;;;;;5112872;28;19998;-42
2023/08/03 07:15:37;;;;;;;;;;;18.20;99.90;;;;;;5119759;27;19919;-43
2023/08/03 07:18:03;;;;;;;;;;;18.20;99.90;;;;;;5121302;27;19953;-43
2023/08/03 07:20:29;;;;;;;;;;;18.10;99.90;;;;;;5127714;27;19915;-43
2023/08/03 07:22:54;;;;;;;;;;;18.10;99.90;;;;;;5147386;27;19955;-43
2023/08/03 07:25:20;;;;;;;;;;;18.20;99.90;;;;;;5155003;27;20401;-42
2023/08/03 07:27:45;;;;;;;;;;;18.20;99.90;;;;;;5154135;27;20302;-43
2023/08/03 07:30:11;;;;;;;;;;;18.20;99.90;;;;;;5117817;27;19915;-42
2023/08/03 07:32:37;;;;;;;;;;;18.20;99.90;;;;;;5120812;27;19915;-42
2023/08/03 07:35:03;;;;;;;;;;;18.30;99.90;;;;;;5131609;27;19908;-42
2023/08/03 07:37:28;;;;;;;;;;;18.40;99.90;;;;;;5132581;27;20433;-42
2023/08/03 07:39:53;;;;;;;;;;;18.50;99.90;;;;;;5135404;27;19959;-42
2023/08/03 07:42:19;;;;;;;;;;;18.60;99.90;;;;;;5132737;27;19911;-42
2023/08/03 07:44:44;;;;;;;;;;;18.70;99.90;;;;;;5124914;27;19920;-43
2023/08/03 07:47:10;;;;;;;;;;;18.80;99.90;;;;;;5128750;27;19930;-43
2023/08/03 07:49:35;;;;;;;;;;;18.80;99.90;;;;;;5125974;27;20060;-43
2023/08/03 07:52:01;;;;;;;;;;;18.90;99.90;;;;;;5113531;28;19908;-45
2023/08/03 07:54:26;;;;;;;;;;;18.90;99.90;;;;;;5143602;27;19915;-43
2023/08/03 07:56:52;;;;;;;;;;;18.90;99.90;;;;;;5148512;27;19907;-44
2023/08/03 07:59:17;;;;;;;;;;;19.00;99.90;;;;;;5126202;27;19915;-42
2023/08/03 08:01:46;;;;;;;;;;;19.10;99.90;;;;;;5132180;27;19957;-42
2023/08/03 08:04:11;;;;;;;;;;;19.20;99.90;;;;;;5118282;27;20214;-42
2023/08/03 08:06:37;;;;;;;;;;;19.20;99.90;;;;;;5128437;27;20030;-42
2023/08/03 08:09:02;;;;;;;;;;;19.30;99.90;;;;;;5127803;27;19916;-44
2023/08/03 08:11:28;;;;;;;;;;;19.40;99.90;;;;;;5114160;27;19915;-42
2023/08/03 08:13:55;;;;;;;;;;;19.40;99.90;;;;;;5136450;27;19912;-43
2023/08/03 08:16:21;;;;;;;;;;;19.40;99.90;;;;;;5131331;27;19969;-43
2023/08/03 08:18:46;;;;;;;;;;;19.40;99.90;;;;;;5132411;27;19907;-42
2023/08/03 08:21:12;;;;;;;;;;;19.40;99.90;;;;;;5135503;27;19984;-42
2023/08/03 08:23:38;;;;;;;;;;;19.40;99.90;;;;;;5141347;27;19911;-42
2023/08/03 08:26:13;;;;;;;;;;;19.50;99.90;;;;;;5133689;27;19986;-43
2023/08/03 08:28:39;;;;;;;;;;;19.60;99.90;;;;;;5133834;27;20338;-42
2023/08/03 08:31:05;;;;;;;;;;;19.60;99.90;;;;;;5133375;27;19915;-43
2023/08/03 08:33:30;;;;;;;;;;;19.70;99.90;;;;;;5115135;27;19907;-42
2023/08/03 08:35:56;;;;;;;;;;;19.90;99.90;;;;;;5111869;28;19911;-43
2023/08/03 08:38:21;;;;;;;;;;;19.90;99.90;;;;;;5126980;28;19923;-43
2023/08/03 08:40:47;;;;;;;;;;;20.00;99.90;;;;;;5132297;28;20237;-42
2023/08/03 08:43:12;;;;;;;;;;;19.90;99.90;;;;;;5128508;27;19920;-44
2023/08/03 08:45:38;;;;;;;;;;;19.80;99.90;;;;;;5120518;28;19915;-43
2023/08/03 08:48:04;;;;;;;;;;;19.80;99.90;;;;;;5112722;28;19968;-42
2023/08/03 08:50:30;;;;;;;;;;;19.90;99.90;;;;;;5112786;28;20349;-43
2023/08/03 08:52:56;;;;;;;;;;;20.00;99.90;;;;;;5124782;27;19923;-44
2023/08/03 08:55:24;;;;;;;;;;;20.20;99.90;;;;;;5112473;28;19912;-42
2023/08/03 08:57:53;;;;;;;;;;;20.40;99.90;;;;;;5113751;28;19941;-42
2023/08/03 09:00:19;;;;;;;;;;;20.40;99.90;;;;;;5130802;27;19997;-42
2023/08/03 09:02:45;;;;;;;;;;;20.50;99.90;;;;;;5107704;27;20338;-42
2023/08/03 09:05:14;;;;;;;;;;;20.40;99.90;;;;;;5124447;27;19976;-43
2023/08/03 09:07:40;;;;;;;;;;;20.20;99.90;;;;;;5129740;27;19919;-42
2023/08/03 09:10:06;;;;;;;;;;;20.20;99.90;;;;;;5136307;27;19912;-43
2023/08/03 09:12:31;;;;;;;;;;;20.20;99.90;;;;;;5129266;27;20357;-42
2023/08/03 09:14:58;;;;;;;;;;;20.30;99.90;;;;;;5132997;27;19912;-42
2023/08/03 09:17:24;;;;;;;;;;;20.30;99.90;;;;;;5136054;27;19911;-43
2023/08/03 09:19:49;;;;;;;;;;;20.50;99.90;;;;;;5136051;27;20356;-42
2023/08/03 09:22:15;;;;;;;;;;;20.50;99.90;;;;;;5135392;27;19959;-43
2023/08/03 09:24:40;;;;;;;;;;;20.70;99.90;;;;;;5136046;27;20350;-42
2023/08/03 09:27:06;;;;;;;;;;;20.70;99.90;;;;;;5122433;27;20014;-42
2023/08/03 09:29:32;;;;;;;;;;;20.80;99.90;;;;;;5136237;27;19911;-43
2023/08/03 09:32:04;;;;;;;;;;;20.90;99.90;;;;;;5135772;27;19911;-42
2023/08/03 09:34:39;;;;;;;;;;;20.90;99.90;;;;;;5143397;27;20014;-42
2023/08/03 09:37:06;;;;;;;;;;;20.90;99.90;;;;;;5148908;27;19912;-42
2023/08/03 09:39:34;;;;;;;;;;;21.00;99.90;;;;;;5135971;27;20340;-42
2023/08/03 09:42:03;;;;;;;;;;;21.10;99.90;;;;;;5134517;27;19964;-44
2023/08/03 09:44:33;;;;;;;;;;;21.20;99.90;;;;;;5143562;27;19920;-42
2023/08/03 09:47:05;;;;;;;;;;;21.20;99.90;;;;;;5135328;27;19976;-43
2023/08/03 09:49:32;;;;;;;;;;;21.20;99.90;;;;;;5135132;27;19911;-42
2023/08/03 09:51:59;;;;;;;;;;;21.30;99.90;;;;;;5134299;27;20285;-42
2023/08/03 09:54:29;;;;;;;;;;;21.50;99.90;;;;;;5150335;27;19911;-41
2023/08/03 09:56:58;;;;;;;;;;;21.60;99.90;;;;;;5154989;27;19907;-43
2023/08/03 09:59:25;;;;;;;;;;;21.50;99.90;;;;;;5143437;27;20007;-41
2023/08/03 10:01:52;;;;;;;;;;;21.60;99.90;;;;;;5139915;27;19926;-41
2023/08/03 10:04:19;;;;;;;;;;;21.70;99.90;;;;;;5142380;27;19973;-42
2023/08/03 10:06:46;;;;;;;;;;;21.80;99.90;;;;;;5136737;27;19920;-43
2023/08/03 10:09:18;;;;;;;;;;;21.70;99.90;;;;;;5121073;27;19916;-42
2023/08/03 10:11:47;;;;;;;;;;;21.70;99.90;;;;;;5128489;27;19919;-43
2023/08/03 10:14:15;;;;;;;;;;;21.60;99.90;;;;;;5112872;28;19911;-42
2023/08/03 10:16:42;;;;;;;;;;;21.30;99.90;;;;;;5130468;27;20317;-42
2023/08/03 10:19:08;;;;;;;;;;;21.40;99.90;;;;;;5131167;27;19957;-42
2023/08/03 10:21:34;;;;;;;;;;;21.50;99.90;;;;;;5115345;27;20315;-42
2023/08/03 10:24:09;;;;;;;;;;;21.80;99.90;;;;;;5153021;27;19911;-41
2023/08/03 10:26:34;;;;;;;;;;;21.90;99.90;;;;;;5154605;27;20354;-42
2023/08/03 10:29:00;;;;;;;;;;;22.10;99.90;;;;;;5135356;27;19935;-42
2023/08/03 10:31:25;;;;;;;;;;;22.10;99.90;;;;;;5133997;27;19908;-42
2023/08/03 10:33:51;;;;;;;;;;;22.30;99.90;;;;;;5134677;27;20362;-44
2023/08/03 10:36:25;;;;;;;;;;;22.20;99.90;;;;;;5135147;27;20003;-43
2023/08/03 10:38:51;;;;;;;;;;;22.10;99.90;;;;;;5134205;27;19916;-43
2023/08/03 10:41:21;;;;;;;;;;;21.80;99.90;;;;;;5134792;27;19914;-42
2023/08/03 10:44:07;;;;;;;;;;;21.50;99.90;;;;;;5130707;27;20001;-43
2023/08/03 10:46:38;;;;;;;;;;;21.50;99.90;;;;;;5111411;27;20327;-43
2023/08/03 10:49:19;;;;;;;;;;;21.70;99.90;;;;;;5135072;27;19915;-42
2023/08/03 10:51:44;;;;;;;;;;;22.00;99.90;;;;;;5139805;27;19911;-42
2023/08/03 10:54:10;;;;;;;;;;;22.10;99.90;;;;;;5117346;27;20002;-43
2023/08/03 10:56:35;;;;;;;;;;;22.00;99.90;;;;;;5119432;27;19916;-43
2023/08/03 10:59:02;;;;;;;;;;;21.80;99.90;;;;;;5134604;27;19918;-42
2023/08/03 11:01:27;;;;;;;;;;;21.70;99.90;;;;;;5131163;27;19918;-43
2023/08/03 11:03:54;;;;;;;;;;;21.60;99.90;;;;;;5121456;27;19911;-42
2023/08/03 11:06:20;;;;;;;;;;;21.70;99.90;;;;;;5124728;27;20382;-43
2023/08/03 11:08:45;;;;;;;;;;;21.70;99.90;;;;;;5121527;27;19908;-42
2023/08/03 11:11:12;;;;;;;;;;;21.70;99.90;;;;;;5123730;27;19923;-42
2023/08/03 11:13:37;;;;;;;;;;;21.60;99.90;;;;;;5134284;27;20243;-43
2023/08/03 11:16:03;;;;;;;;;;;21.70;99.90;;;;;;5134585;27;19914;-43
2023/08/03 11:18:29;;;;;;;;;;;21.90;99.90;;;;;;5134038;27;19918;-42
2023/08/03 11:20:54;;;;;;;;;;;21.90;99.90;;;;;;5137356;27;19911;-43
2023/08/03 11:23:20;;;;;;;;;;;22.00;99.90;;;;;;5153293;27;19907;-43
2023/08/03 11:25:46;;;;;;;;;;;22.10;99.90;;;;;;5127644;27;20382;-43
2023/08/03 11:28:18;;;;;;;;;;;22.30;99.90;;;;;;5124402;27;19992;-44
2023/08/03 11:30:44;;;;;;;;;;;22.40;99.90;;;;;;5127404;27;19918;-42
2023/08/03 11:33:12;;;;;;;;;;;22.60;99.90;;;;;;5134764;27;19908;-42
2023/08/03 11:35:37;;;;;;;;;;;22.60;99.90;;;;;;5132917;27;20002;-42
2023/08/03 11:38:05;;;;;;;;;;;22.80;99.90;;;;;;5134740;27;19942;-42
2023/08/03 11:40:31;;;;;;;;;;;22.90;99.90;;;;;;5134927;27;19923;-41
2023/08/03 11:43:04;;;;;;;;;;;23.10;99.90;;;;;;5098197;27;1958348;-43
2023/08/03 11:45:30;;;;;;;;;;;23.10;99.90;;;;;;5154525;27;19950;-42
2023/08/03 11:47:57;;;;;;;;;;;23.10;99.90;;;;;;5152974;27;20014;-43
2023/08/03 11:50:24;;;;;;;;;;;22.90;99.90;;;;;;5158410;27;20270;-42
2023/08/03 11:52:56;;;;;;;;;;;22.80;99.90;;;;;;5151539;27;19960;-42
2023/08/03 11:55:26;;;;;;;;;;;22.70;99.90;;;;;;5142564;27;19919;-43
2023/08/03 11:58:10;;;;;;;;;;;22.60;99.90;;;;;;5137581;27;19941;-43
2023/08/03 12:00:39;;;;;;;;;;;22.40;99.90;;;;;;5159583;27;20318;-42
2023/08/03 12:03:05;;;;;;;;;;;22.50;99.90;;;;;;5171258;27;19911;-42
2023/08/03 12:05:46;;;;;;;;;;;22.60;99.90;;;;;;5172151;27;19914;-42
2023/08/03 12:08:15;;;;;;;;;;;22.70;99.90;;;;;;5172316;27;19907;-44
2023/08/03 12:10:54;;;;;;;;;;;22.80;99.90;;;;;;5170745;27;19911;-43
2023/08/03 12:13:19;;;;;;;;;;;22.90;99.90;;;;;;5172117;27;19911;-43
2023/08/03 12:15:45;;;;;;;;;;;23.10;99.90;;;;;;5171074;27;20011;-42
2023/08/03 12:18:10;;;;;;;;;;;23.20;99.90;;;;;;5172015;27;19907;-42
2023/08/03 12:20:36;;;;;;;;;;;23.40;99.90;;;;;;5169537;27;20351;-42
2023/08/03 12:23:01;;;;;;;;;;;23.70;99.90;;;;;;5171083;27;19963;-42
2023/08/03 12:25:27;;;;;;;;;;;23.60;99.90;;;;;;5172006;27;20345;-42
2023/08/03 12:27:52;;;;;;;;;;;23.70;99.90;;;;;;5171784;27;19911;-43
2023/08/03 12:30:18;;;;;;;;;;;23.70;99.90;;;;;;5161424;27;19992;-42
2023/08/03 12:32:43;;;;;;;;;;;23.40;99.90;;;;;;5152131;27;19908;-42
2023/08/03 12:35:10;;;;;;;;;;;23.20;99.90;;;;;;5152572;27;19911;-42
2023/08/03 12:37:36;;;;;;;;;;;23.10;99.90;;;;;;5168628;27;19958;-43
2023/08/03 12:40:01;;;;;;;;;;;23.00;99.90;;;;;;5144801;27;19950;-43
2023/08/03 12:42:27;;;;;;;;;;;23.10;99.90;;;;;;5146913;27;20274;-43
2023/08/03 12:44:52;;;;;;;;;;;23.20;99.90;;;;;;5137498;27;19960;-42
2023/08/03 12:47:17;;;;;;;;;;;23.10;99.90;;;;;;5143036;27;19912;-43
2023/08/03 12:49:43;;;;;;;;;;;23.00;99.90;;;;;;5151681;27;19918;-44
2023/08/03 12:52:09;;;;;;;;;;;22.90;99.90;;;;;;5152635;27;19907;-43
2023/08/03 12:54:34;;;;;;;;;;;23.10;99.90;;;;;;5124215;27;19908;-43
2023/08/03 12:57:00;;;;;;;;;;;23.20;99.90;;;;;;5118903;27;19907;-43
2023/08/03 12:59:26;;;;;;;;;;;23.30;99.90;;;;;;5135155;27;19998;-44
2023/08/03 13:01:51;;;;;;;;;;;23.40;99.90;;;;;;5131973;27;20026;-43
2023/08/03 13:04:17;;;;;;;;;;;23.80;99.90;;;;;;5131184;27;19957;-45
2023/08/03 13:06:42;;;;;;;;;;;24.00;99.90;;;;;;5147850;27;20377;-43
2023/08/03 13:09:08;;;;;;;;;;;24.20;99.90;;;;;;5122554;27;19923;-42
2023/08/03 13:11:33;;;;;;;;;;;24.30;99.90;;;;;;5125741;27;20409;-43
2023/08/03 13:13:59;;;;;;;;;;;24.20;99.90;;;;;;5134261;27;19908;-43
2023/08/03 13:16:25;;;;;;;;;;;24.20;99.90;;;;;;5126212;27;20289;-43
2023/08/03 13:18:52;;;;;;;;;;;24.20;99.90;;;;;;5119370;27;20028;-46
2023/08/03 13:21:18;;;;;;;;;;;24.00;99.90;;;;;;5121964;27;19959;-43
2023/08/03 13:23:44;;;;;;;;;;;23.80;99.90;;;;;;5115325;28;19919;-43
2023/08/03 13:26:09;;;;;;;;;;;23.60;99.90;;;;;;5133748;27;19916;-43
2023/08/03 13:28:35;;;;;;;;;;;23.60;99.90;;;;;;5135451;27;19954;-43
2023/08/03 13:31:00;;;;;;;;;;;23.60;99.90;;;;;;5135850;27;19999;-44
2023/08/03 13:33:26;;;;;;;;;;;23.60;99.90;;;;;;5142378;27;20262;-43
2023/08/03 13:35:51;;;;;;;;;;;23.50;99.90;;;;;;5152956;27;19911;-43
2023/08/03 13:38:17;;;;;;;;;;;23.50;99.90;;;;;;5133170;27;19926;-46
2023/08/03 13:40:42;;;;;;;;;;;23.50;99.90;;;;;;5122674;27;19914;-43
2023/08/03 13:43:08;;;;;;;;;;;23.50;99.90;;;;;;5136114;27;19919;-43
2023/08/03 13:45:33;;;;;;;;;;;23.20;99.90;;;;;;5135796;27;20358;-43
2023/08/03 13:47:59;;;;;;;;;;;23.10;99.90;;;;;;5135846;27;19908;-43
2023/08/03 13:50:24;;;;;;;;;;;23.00;99.90;;;;;;5136182;27;19913;-43
2023/08/03 13:52:50;;;;;;;;;;;23.00;99.90;;;;;;5137261;27;19911;-44
2023/08/03 13:55:15;;;;;;;;;;;23.00;99.90;;;;;;5135813;27;20010;-43
2023/08/03 13:57:40;;;;;;;;;;;22.90;99.90;;;;;;5136084;27;20327;-43
2023/08/03 14:00:09;;;;;;;;;;;22.60;99.90;;;;;;5136084;27;19918;-44
2023/08/03 14:02:35;;;;;;;;;;;22.40;99.90;;;;;;5135399;27;19972;-43
2023/08/03 14:05:00;;;;;;;;;;;22.20;99.90;;;;;;5135024;27;20265;-43
2023/08/03 14:07:26;;;;;;;;;;;22.20;99.90;;;;;;5136145;27;19922;-43
2023/08/03 14:09:51;;;;;;;;;;;22.20;99.90;;;;;;5135623;27;20315;-43